sensor_id;sensor_type;location;lat;lon;timestamp;P1;durP1;ratioP1;P2;durP2;ratioP2
52768;SDS011;40471;44.534;18.644;2024-03-23T00:55:12;69.80;;;42.10;;
52768;SDS011;40471;44.534;18.644;2024-03-23T00:57:39;77.57;;;48.55;;
52768;SDS011;40471;44.534;18.644;2024-03-23T01:00:05;69.73;;;42.47;;
52768;SDS011;40471;44.534;18.644;2024-03-23T01:02:31;65.15;;;38.00;;
52768;SDS011;40471;44.534;18.644;2024-03-23T01:07:23;68.15;;;40.28;;
52768;SDS011;40471;44.534;18.644;2024-03-23T01:09:49;89.37;;;53.97;;
52768;SDS011;40471;44.534;18.644;2024-03-23T01:12:15;91.13;;;61.00;;
52768;SDS011;40471;44.534;18.644;2024-03-23T01:14:41;99.67;;;56.17;;
52768;SDS011;40471;44.534;18.644;2024-03-23T01:17:06;99.70;;;55.43;;
52768;SDS011;40471;44.534;18.644;2024-03-23T01:19:32;104.23;;;64.30;;
52768;SDS011;40471;44.534;18.644;2024-03-23T01:21:58;125.18;;;70.30;;
52768;SDS011;40471;44.534;18.644;2024-03-23T01:24:24;134.40;;;75.03;;
52768;SDS011;40471;44.534;18.644;2024-03-23T01:26:50;132.40;;;72.73;;
52768;SDS011;40471;44.534;18.644;2024-03-23T01:29:15;87.17;;;47.30;;
52768;SDS011;40471;44.534;18.644;2024-03-23T01:31:41;56.00;;;33.37;;
52768;SDS011;40471;44.534;18.644;2024-03-23T01:34:07;49.63;;;29.47;;
52768;SDS011;40471;44.534;18.644;2024-03-23T01:36:32;49.93;;;27.87;;
52768;SDS011;40471;44.534;18.644;2024-03-23T01:38:58;44.20;;;28.80;;
52768;SDS011;40471;44.534;18.644;2024-03-23T01:41:24;59.93;;;35.33;;
52768;SDS011;40471;44.534;18.644;2024-03-23T01:43:50;71.40;;;36.87;;
52768;SDS011;40471;44.534;18.644;2024-03-23T01:46:16;67.40;;;37.57;;
52768;SDS011;40471;44.534;18.644;2024-03-23T01:48:42;55.70;;;35.60;;
52768;SDS011;40471;44.534;18.644;2024-03-23T01:51:08;67.30;;;37.47;;
52768;SDS011;40471;44.534;18.644;2024-03-23T01:53:34;63.93;;;38.57;;
52768;SDS011;40471;44.534;18.644;2024-03-23T01:55:59;78.90;;;53.13;;
52768;SDS011;40471;44.534;18.644;2024-03-23T01:58:27;117.75;;;68.63;;
52768;SDS011;40471;44.534;18.644;2024-03-23T02:00:53;81.07;;;47.97;;
52768;SDS011;40471;44.534;18.644;2024-03-23T02:03:25;104.53;;;58.20;;
52768;SDS011;40471;44.534;18.644;2024-03-23T02:05:55;84.72;;;52.53;;
52768;SDS011;40471;44.534;18.644;2024-03-23T02:08:22;85.40;;;57.53;;
52768;SDS011;40471;44.534;18.644;2024-03-23T02:10:49;68.80;;;45.55;;
52768;SDS011;40471;44.534;18.644;2024-03-23T02:13:15;52.67;;;34.60;;
52768;SDS011;40471;44.534;18.644;2024-03-23T02:15:42;51.03;;;34.03;;
52768;SDS011;40471;44.534;18.644;2024-03-23T02:18:09;48.47;;;31.33;;
52768;SDS011;40471;44.534;18.644;2024-03-23T02:20:36;53.97;;;32.63;;
52768;SDS011;40471;44.534;18.644;2024-03-23T02:23:02;73.40;;;40.53;;
52768;SDS011;40471;44.534;18.644;2024-03-23T02:25:28;83.75;;;50.30;;
52768;SDS011;40471;44.534;18.644;2024-03-23T02:27:54;84.03;;;47.97;;
52768;SDS011;40471;44.534;18.644;2024-03-23T02:30:20;96.67;;;51.00;;
52768;SDS011;40471;44.534;18.644;2024-03-23T02:32:46;182.50;;;101.17;;
52768;SDS011;40471;44.534;18.644;2024-03-23T02:35:12;101.03;;;59.58;;
52768;SDS011;40471;44.534;18.644;2024-03-23T02:37:38;84.10;;;45.47;;
52768;SDS011;40471;44.534;18.644;2024-03-23T02:40:03;85.47;;;49.70;;
52768;SDS011;40471;44.534;18.644;2024-03-23T02:42:30;85.70;;;53.47;;
52768;SDS011;40471;44.534;18.644;2024-03-23T02:44:56;86.17;;;52.20;;
52768;SDS011;40471;44.534;18.644;2024-03-23T02:47:23;76.88;;;43.45;;
52768;SDS011;40471;44.534;18.644;2024-03-23T02:49:49;64.50;;;42.77;;
52768;SDS011;40471;44.534;18.644;2024-03-23T02:52:14;76.37;;;44.70;;
52768;SDS011;40471;44.534;18.644;2024-03-23T02:54:40;64.30;;;39.30;;
52768;SDS011;40471;44.534;18.644;2024-03-23T02:57:09;67.22;;;39.75;;
52768;SDS011;40471;44.534;18.644;2024-03-23T02:59:35;72.80;;;48.27;;
52768;SDS011;40471;44.534;18.644;2024-03-23T03:02:01;68.97;;;49.10;;
52768;SDS011;40471;44.534;18.644;2024-03-23T03:04:29;58.45;;;37.55;;
52768;SDS011;40471;44.534;18.644;2024-03-23T03:06:55;67.30;;;46.47;;
52768;SDS011;40471;44.534;18.644;2024-03-23T03:09:21;58.57;;;38.70;;
52768;SDS011;40471;44.534;18.644;2024-03-23T03:11:47;60.57;;;36.00;;
52768;SDS011;40471;44.534;18.644;2024-03-23T03:14:12;51.83;;;36.33;;
52768;SDS011;40471;44.534;18.644;2024-03-23T03:16:38;56.20;;;38.50;;
52768;SDS011;40471;44.534;18.644;2024-03-23T03:19:04;49.20;;;35.43;;
52768;SDS011;40471;44.534;18.644;2024-03-23T03:23:57;39.78;;;26.73;;
52768;SDS011;40471;44.534;18.644;2024-03-23T03:26:23;51.00;;;31.10;;
52768;SDS011;40471;44.534;18.644;2024-03-23T03:28:49;54.63;;;32.37;;
52768;SDS011;40471;44.534;18.644;2024-03-23T03:31:16;62.13;;;36.25;;
52768;SDS011;40471;44.534;18.644;2024-03-23T03:33:42;65.85;;;35.30;;
52768;SDS011;40471;44.534;18.644;2024-03-23T03:36:08;59.13;;;35.78;;
52768;SDS011;40471;44.534;18.644;2024-03-23T03:38:34;65.37;;;35.37;;
52768;SDS011;40471;44.534;18.644;2024-03-23T03:41:00;47.20;;;28.67;;
52768;SDS011;40471;44.534;18.644;2024-03-23T03:43:31;45.80;;;25.80;;
52768;SDS011;40471;44.534;18.644;2024-03-23T03:45:57;41.93;;;24.33;;
52768;SDS011;40471;44.534;18.644;2024-03-23T03:50:49;44.42;;;26.98;;
52768;SDS011;40471;44.534;18.644;2024-03-23T03:53:15;48.90;;;33.97;;
52768;SDS011;40471;44.534;18.644;2024-03-23T03:55:41;50.30;;;31.57;;
52768;SDS011;40471;44.534;18.644;2024-03-23T03:58:07;60.07;;;36.20;;
52768;SDS011;40471;44.534;18.644;2024-03-23T04:00:33;36.47;;;23.37;;
52768;SDS011;40471;44.534;18.644;2024-03-23T04:02:58;45.77;;;27.57;;
52768;SDS011;40471;44.534;18.644;2024-03-23T04:05:24;41.10;;;24.67;;
52768;SDS011;40471;44.534;18.644;2024-03-23T04:07:50;37.00;;;25.63;;
52768;SDS011;40471;44.534;18.644;2024-03-23T04:10:16;34.17;;;23.37;;
52768;SDS011;40471;44.534;18.644;2024-03-23T04:12:42;43.37;;;25.37;;
52768;SDS011;40471;44.534;18.644;2024-03-23T04:15:09;40.75;;;22.20;;
52768;SDS011;40471;44.534;18.644;2024-03-23T04:17:35;32.78;;;20.33;;
52768;SDS011;40471;44.534;18.644;2024-03-23T04:20:01;35.03;;;24.30;;
52768;SDS011;40471;44.534;18.644;2024-03-23T04:22:34;48.72;;;26.60;;
52768;SDS011;40471;44.534;18.644;2024-03-23T04:25:00;44.25;;;23.33;;
52768;SDS011;40471;44.534;18.644;2024-03-23T04:27:34;38.40;;;22.83;;
52768;SDS011;40471;44.534;18.644;2024-03-23T04:30:00;51.38;;;27.52;;
52768;SDS011;40471;44.534;18.644;2024-03-23T04:32:27;43.78;;;28.58;;
52768;SDS011;40471;44.534;18.644;2024-03-23T04:34:53;42.20;;;26.33;;
52768;SDS011;40471;44.534;18.644;2024-03-23T04:39:45;39.15;;;23.90;;
52768;SDS011;40471;44.534;18.644;2024-03-23T04:42:11;36.30;;;21.67;;
52768;SDS011;40471;44.534;18.644;2024-03-23T04:44:37;42.53;;;22.13;;
52768;SDS011;40471;44.534;18.644;2024-03-23T04:47:04;37.03;;;22.93;;
52768;SDS011;40471;44.534;18.644;2024-03-23T04:49:30;32.50;;;20.50;;
52768;SDS011;40471;44.534;18.644;2024-03-23T04:51:56;41.10;;;23.73;;
52768;SDS011;40471;44.534;18.644;2024-03-23T04:54:22;40.80;;;23.40;;
52768;SDS011;40471;44.534;18.644;2024-03-23T04:56:48;37.03;;;21.97;;
52768;SDS011;40471;44.534;18.644;2024-03-23T04:59:13;32.20;;;21.70;;
52768;SDS011;40471;44.534;18.644;2024-03-23T05:01:39;30.50;;;22.20;;
52768;SDS011;40471;44.534;18.644;2024-03-23T05:04:07;37.60;;;20.13;;
52768;SDS011;40471;44.534;18.644;2024-03-23T05:06:33;29.00;;;21.23;;
52768;SDS011;40471;44.534;18.644;2024-03-23T05:08:59;43.58;;;25.95;;
52768;SDS011;40471;44.534;18.644;2024-03-23T05:11:31;30.05;;;20.85;;
52768;SDS011;40471;44.534;18.644;2024-03-23T05:13:57;34.97;;;23.63;;
52768;SDS011;40471;44.534;18.644;2024-03-23T05:16:23;28.80;;;20.57;;
52768;SDS011;40471;44.534;18.644;2024-03-23T05:18:49;28.53;;;21.57;;
52768;SDS011;40471;44.534;18.644;2024-03-23T05:21:14;34.63;;;21.60;;
52768;SDS011;40471;44.534;18.644;2024-03-23T05:23:40;37.30;;;22.33;;
52768;SDS011;40471;44.534;18.644;2024-03-23T05:26:06;46.53;;;25.13;;
52768;SDS011;40471;44.534;18.644;2024-03-23T05:28:31;42.70;;;28.40;;
52768;SDS011;40471;44.534;18.644;2024-03-23T05:30:57;54.23;;;30.40;;
52768;SDS011;40471;44.534;18.644;2024-03-23T05:33:23;62.27;;;30.97;;
52768;SDS011;40471;44.534;18.644;2024-03-23T05:35:58;62.20;;;31.63;;
52768;SDS011;40471;44.534;18.644;2024-03-23T05:38:27;36.45;;;25.02;;
52768;SDS011;40471;44.534;18.644;2024-03-23T05:40:53;37.75;;;25.48;;
52768;SDS011;40471;44.534;18.644;2024-03-23T05:45:45;42.03;;;24.50;;
52768;SDS011;40471;44.534;18.644;2024-03-23T05:48:11;41.37;;;21.87;;
52768;SDS011;40471;44.534;18.644;2024-03-23T05:50:37;33.90;;;20.97;;
52768;SDS011;40471;44.534;18.644;2024-03-23T05:53:02;42.37;;;25.30;;
52768;SDS011;40471;44.534;18.644;2024-03-23T05:55:30;40.28;;;22.83;;
52768;SDS011;40471;44.534;18.644;2024-03-23T05:57:55;62.60;;;29.10;;
52768;SDS011;40471;44.534;18.644;2024-03-23T06:00:21;46.10;;;26.67;;
52768;SDS011;40471;44.534;18.644;2024-03-23T06:02:47;47.00;;;26.00;;
52768;SDS011;40471;44.534;18.644;2024-03-23T06:05:13;44.53;;;26.58;;
52768;SDS011;40471;44.534;18.644;2024-03-23T06:07:39;38.97;;;25.47;;
52768;SDS011;40471;44.534;18.644;2024-03-23T06:10:05;32.30;;;20.85;;
52768;SDS011;40471;44.534;18.644;2024-03-23T06:12:31;34.85;;;20.90;;
52768;SDS011;40471;44.534;18.644;2024-03-23T06:14:57;46.55;;;21.40;;
52768;SDS011;40471;44.534;18.644;2024-03-23T06:17:23;35.33;;;20.55;;
52768;SDS011;40471;44.534;18.644;2024-03-23T06:19:48;39.03;;;18.25;;
52768;SDS011;40471;44.534;18.644;2024-03-23T06:22:14;36.15;;;18.80;;
52768;SDS011;40471;44.534;18.644;2024-03-23T06:24:41;20.52;;;13.07;;
52768;SDS011;40471;44.534;18.644;2024-03-23T06:27:07;30.08;;;17.70;;
52768;SDS011;40471;44.534;18.644;2024-03-23T06:29:34;33.30;;;16.85;;
52768;SDS011;40471;44.534;18.644;2024-03-23T06:32:01;25.02;;;14.75;;
52768;SDS011;40471;44.534;18.644;2024-03-23T06:34:28;22.05;;;13.63;;
52768;SDS011;40471;44.534;18.644;2024-03-23T06:36:55;26.67;;;16.20;;
52768;SDS011;40471;44.534;18.644;2024-03-23T06:39:21;19.27;;;12.63;;
52768;SDS011;40471;44.534;18.644;2024-03-23T06:41:53;22.33;;;13.88;;
52768;SDS011;40471;44.534;18.644;2024-03-23T06:44:19;16.38;;;11.13;;
52768;SDS011;40471;44.534;18.644;2024-03-23T06:46:45;17.88;;;13.23;;
52768;SDS011;40471;44.534;18.644;2024-03-23T06:49:12;22.20;;;11.13;;
52768;SDS011;40471;44.534;18.644;2024-03-23T06:51:38;28.00;;;14.07;;
52768;SDS011;40471;44.534;18.644;2024-03-23T06:56:30;28.67;;;15.85;;
52768;SDS011;40471;44.534;18.644;2024-03-23T06:58:56;46.22;;;16.42;;
52768;SDS011;40471;44.534;18.644;2024-03-23T07:01:22;37.60;;;14.70;;
52768;SDS011;40471;44.534;18.644;2024-03-23T07:03:48;26.02;;;13.93;;
52768;SDS011;40471;44.534;18.644;2024-03-23T07:06:14;48.00;;;17.52;;
52768;SDS011;40471;44.534;18.644;2024-03-23T07:08:39;42.88;;;16.13;;
52768;SDS011;40471;44.534;18.644;2024-03-23T07:13:31;45.78;;;15.73;;
52768;SDS011;40471;44.534;18.644;2024-03-23T07:18:23;24.00;;;12.73;;
52768;SDS011;40471;44.534;18.644;2024-03-23T07:23:21;31.50;;;12.35;;
52768;SDS011;40471;44.534;18.644;2024-03-23T07:26:00;22.17;;;13.88;;
52768;SDS011;40471;44.534;18.644;2024-03-23T07:28:30;18.75;;;12.18;;
52768;SDS011;40471;44.534;18.644;2024-03-23T07:31:04;14.07;;;11.73;;
52768;SDS011;40471;44.534;18.644;2024-03-23T07:33:31;22.95;;;14.38;;
52768;SDS011;40471;44.534;18.644;2024-03-23T07:35:58;43.78;;;16.35;;
52768;SDS011;40471;44.534;18.644;2024-03-23T07:38:27;26.40;;;14.63;;
52768;SDS011;40471;44.534;18.644;2024-03-23T07:43:36;21.95;;;11.45;;
52768;SDS011;40471;44.534;18.644;2024-03-23T07:46:05;17.02;;;12.30;;
52768;SDS011;40471;44.534;18.644;2024-03-23T07:48:31;17.67;;;12.00;;
52768;SDS011;40471;44.534;18.644;2024-03-23T07:50:58;13.07;;;10.10;;
52768;SDS011;40471;44.534;18.644;2024-03-23T07:53:28;16.30;;;11.18;;
52768;SDS011;40471;44.534;18.644;2024-03-23T07:55:58;9.85;;;8.38;;
52768;SDS011;40471;44.534;18.644;2024-03-23T07:58:27;10.95;;;7.80;;
52768;SDS011;40471;44.534;18.644;2024-03-23T08:00:54;19.80;;;10.38;;
52768;SDS011;40471;44.534;18.644;2024-03-23T08:03:20;13.55;;;8.07;;
52768;SDS011;40471;44.534;18.644;2024-03-23T08:05:46;19.80;;;8.93;;
52768;SDS011;40471;44.534;18.644;2024-03-23T08:08:12;9.80;;;7.43;;
52768;SDS011;40471;44.534;18.644;2024-03-23T08:10:50;10.50;;;6.63;;
52768;SDS011;40471;44.534;18.644;2024-03-23T08:13:17;18.13;;;9.70;;
52768;SDS011;40471;44.534;18.644;2024-03-23T08:15:43;15.57;;;7.82;;
52768;SDS011;40471;44.534;18.644;2024-03-23T08:18:10;13.95;;;7.90;;
52768;SDS011;40471;44.534;18.644;2024-03-23T08:20:37;9.60;;;7.47;;
52768;SDS011;40471;44.534;18.644;2024-03-23T08:23:03;17.80;;;10.07;;
52768;SDS011;40471;44.534;18.644;2024-03-23T08:25:32;11.82;;;8.10;;
52768;SDS011;40471;44.534;18.644;2024-03-23T08:27:58;13.18;;;8.32;;
52768;SDS011;40471;44.534;18.644;2024-03-23T08:30:24;11.57;;;7.15;;
52768;SDS011;40471;44.534;18.644;2024-03-23T08:32:50;16.02;;;8.10;;
52768;SDS011;40471;44.534;18.644;2024-03-23T08:35:16;8.82;;;7.22;;
52768;SDS011;40471;44.534;18.644;2024-03-23T08:37:42;16.08;;;9.57;;
52768;SDS011;40471;44.534;18.644;2024-03-23T08:40:08;9.93;;;7.90;;
52768;SDS011;40471;44.534;18.644;2024-03-23T08:42:34;12.15;;;6.97;;
52768;SDS011;40471;44.534;18.644;2024-03-23T08:45:00;17.55;;;5.93;;
52768;SDS011;40471;44.534;18.644;2024-03-23T08:47:26;21.35;;;8.00;;
52768;SDS011;40471;44.534;18.644;2024-03-23T08:49:51;15.07;;;7.78;;
52768;SDS011;40471;44.534;18.644;2024-03-23T08:52:17;22.27;;;9.55;;
52768;SDS011;40471;44.534;18.644;2024-03-23T08:54:43;19.15;;;7.28;;
52768;SDS011;40471;44.534;18.644;2024-03-23T08:57:09;16.40;;;8.40;;
52768;SDS011;40471;44.534;18.644;2024-03-23T08:59:35;15.23;;;6.97;;
52768;SDS011;40471;44.534;18.644;2024-03-23T09:02:02;15.80;;;9.07;;
52768;SDS011;40471;44.534;18.644;2024-03-23T09:04:29;11.40;;;7.68;;
52768;SDS011;40471;44.534;18.644;2024-03-23T09:06:55;7.20;;;6.40;;
52768;SDS011;40471;44.534;18.644;2024-03-23T09:09:22;15.00;;;7.00;;
52768;SDS011;40471;44.534;18.644;2024-03-23T09:11:48;15.98;;;7.18;;
52768;SDS011;40471;44.534;18.644;2024-03-23T09:14:14;10.57;;;7.68;;
52768;SDS011;40471;44.534;18.644;2024-03-23T09:16:39;7.35;;;4.90;;
52768;SDS011;40471;44.534;18.644;2024-03-23T09:19:05;11.45;;;5.88;;
52768;SDS011;40471;44.534;18.644;2024-03-23T09:21:31;16.20;;;6.38;;
52768;SDS011;40471;44.534;18.644;2024-03-23T09:23:56;6.72;;;5.07;;
52768;SDS011;40471;44.534;18.644;2024-03-23T09:26:22;11.32;;;5.80;;
52768;SDS011;40471;44.534;18.644;2024-03-23T09:28:48;10.52;;;5.47;;
52768;SDS011;40471;44.534;18.644;2024-03-23T09:31:14;8.15;;;6.25;;
52768;SDS011;40471;44.534;18.644;2024-03-23T09:33:40;17.20;;;6.43;;
52768;SDS011;40471;44.534;18.644;2024-03-23T09:36:07;11.52;;;4.25;;
52768;SDS011;40471;44.534;18.644;2024-03-23T09:38:33;9.02;;;4.03;;
52768;SDS011;40471;44.534;18.644;2024-03-23T09:40:59;6.50;;;4.32;;
52768;SDS011;40471;44.534;18.644;2024-03-23T09:43:25;6.35;;;4.97;;
52768;SDS011;40471;44.534;18.644;2024-03-23T09:45:52;7.82;;;4.40;;
52768;SDS011;40471;44.534;18.644;2024-03-23T09:48:18;6.80;;;4.25;;
52768;SDS011;40471;44.534;18.644;2024-03-23T09:50:44;19.27;;;6.50;;
52768;SDS011;40471;44.534;18.644;2024-03-23T09:53:11;6.55;;;3.97;;
52768;SDS011;40471;44.534;18.644;2024-03-23T09:55:38;7.00;;;4.80;;
52768;SDS011;40471;44.534;18.644;2024-03-23T09:58:07;4.45;;;3.00;;
52768;SDS011;40471;44.534;18.644;2024-03-23T10:00:37;5.35;;;4.07;;
52768;SDS011;40471;44.534;18.644;2024-03-23T10:03:03;5.30;;;3.97;;
52768;SDS011;40471;44.534;18.644;2024-03-23T10:05:31;11.68;;;4.35;;
52768;SDS011;40471;44.534;18.644;2024-03-23T10:07:59;6.90;;;4.60;;
52768;SDS011;40471;44.534;18.644;2024-03-23T10:10:25;3.83;;;1.95;;
52768;SDS011;40471;44.534;18.644;2024-03-23T10:12:51;2.25;;;1.63;;
52768;SDS011;40471;44.534;18.644;2024-03-23T10:15:21;8.35;;;1.75;;
52768;SDS011;40471;44.534;18.644;2024-03-23T10:17:48;9.13;;;1.33;;
52768;SDS011;40471;44.534;18.644;2024-03-23T10:20:23;3.63;;;1.98;;
52768;SDS011;40471;44.534;18.644;2024-03-23T10:22:49;3.53;;;2.80;;
52768;SDS011;40471;44.534;18.644;2024-03-23T10:25:16;5.75;;;3.45;;
52768;SDS011;40471;44.534;18.644;2024-03-23T10:27:42;6.15;;;1.88;;
52768;SDS011;40471;44.534;18.644;2024-03-23T10:30:12;2.95;;;2.38;;
52768;SDS011;40471;44.534;18.644;2024-03-23T10:32:42;9.10;;;2.17;;
52768;SDS011;40471;44.534;18.644;2024-03-23T10:35:18;6.75;;;2.38;;
52768;SDS011;40471;44.534;18.644;2024-03-23T10:37:47;5.75;;;2.08;;
52768;SDS011;40471;44.534;18.644;2024-03-23T10:40:14;6.25;;;2.58;;
52768;SDS011;40471;44.534;18.644;2024-03-23T10:42:41;12.77;;;2.53;;
52768;SDS011;40471;44.534;18.644;2024-03-23T10:45:07;8.90;;;2.00;;
52768;SDS011;40471;44.534;18.644;2024-03-23T10:47:34;3.28;;;2.05;;
52768;SDS011;40471;44.534;18.644;2024-03-23T10:50:01;27.63;;;3.75;;
52768;SDS011;40471;44.534;18.644;2024-03-23T10:52:28;7.88;;;3.00;;
52768;SDS011;40471;44.534;18.644;2024-03-23T10:54:54;1.98;;;1.75;;
52768;SDS011;40471;44.534;18.644;2024-03-23T10:57:25;5.68;;;2.03;;
52768;SDS011;40471;44.534;18.644;2024-03-23T10:59:56;7.32;;;2.25;;
52768;SDS011;40471;44.534;18.644;2024-03-23T11:02:22;2.88;;;2.22;;
52768;SDS011;40471;44.534;18.644;2024-03-23T11:04:48;13.68;;;2.72;;
52768;SDS011;40471;44.534;18.644;2024-03-23T11:09:55;12.25;;;2.45;;
52768;SDS011;40471;44.534;18.644;2024-03-23T11:14:51;6.05;;;2.17;;
52768;SDS011;40471;44.534;18.644;2024-03-23T11:17:30;13.98;;;2.55;;
52768;SDS011;40471;44.534;18.644;2024-03-23T11:22:40;2.83;;;1.60;;
52768;SDS011;40471;44.534;18.644;2024-03-23T11:25:14;5.43;;;2.40;;
52768;SDS011;40471;44.534;18.644;2024-03-23T11:27:45;3.90;;;2.03;;
52768;SDS011;40471;44.534;18.644;2024-03-23T11:30:16;2.03;;;1.65;;
52768;SDS011;40471;44.534;18.644;2024-03-23T11:32:42;2.30;;;1.40;;
52768;SDS011;40471;44.534;18.644;2024-03-23T11:35:24;7.43;;;2.15;;
52768;SDS011;40471;44.534;18.644;2024-03-23T11:40:48;3.00;;;1.10;;
52768;SDS011;40471;44.534;18.644;2024-03-23T11:43:15;4.90;;;1.90;;
52768;SDS011;40471;44.534;18.644;2024-03-23T11:45:43;2.47;;;1.27;;
52768;SDS011;40471;44.534;18.644;2024-03-23T11:48:20;3.58;;;1.00;;
52768;SDS011;40471;44.534;18.644;2024-03-23T11:50:56;2.80;;;0.73;;
52768;SDS011;40471;44.534;18.644;2024-03-23T11:53:23;2.92;;;1.42;;
52768;SDS011;40471;44.534;18.644;2024-03-23T11:55:54;3.60;;;1.63;;
52768;SDS011;40471;44.534;18.644;2024-03-23T11:58:25;2.35;;;1.08;;
52768;SDS011;40471;44.534;18.644;2024-03-23T12:00:52;2.88;;;1.35;;
52768;SDS011;40471;44.534;18.644;2024-03-23T12:03:22;1.52;;;1.00;;
52768;SDS011;40471;44.534;18.644;2024-03-23T12:05:53;1.95;;;1.20;;
52768;SDS011;40471;44.534;18.644;2024-03-23T12:11:15;6.38;;;1.88;;
52768;SDS011;40471;44.534;18.644;2024-03-23T12:13:43;19.75;;;2.30;;
52768;SDS011;40471;44.534;18.644;2024-03-23T12:16:20;4.55;;;2.47;;
52768;SDS011;40471;44.534;18.644;2024-03-23T12:18:47;2.47;;;1.07;;
52768;SDS011;40471;44.534;18.644;2024-03-23T12:21:17;5.15;;;1.58;;
52768;SDS011;40471;44.534;18.644;2024-03-23T12:23:43;3.55;;;1.55;;
52768;SDS011;40471;44.534;18.644;2024-03-23T12:26:13;2.90;;;1.10;;
52768;SDS011;40471;44.534;18.644;2024-03-23T12:28:39;4.35;;;1.30;;
52768;SDS011;40471;44.534;18.644;2024-03-23T12:31:05;23.08;;;1.70;;
52768;SDS011;40471;44.534;18.644;2024-03-23T12:33:31;4.32;;;1.17;;
52768;SDS011;40471;44.534;18.644;2024-03-23T12:35:58;4.20;;;2.22;;
52768;SDS011;40471;44.534;18.644;2024-03-23T12:38:23;6.18;;;4.15;;
52768;SDS011;40471;44.534;18.644;2024-03-23T12:40:49;3.80;;;2.08;;
52768;SDS011;40471;44.534;18.644;2024-03-23T12:43:16;4.25;;;1.55;;
52768;SDS011;40471;44.534;18.644;2024-03-23T12:45:49;1.58;;;0.85;;
52768;SDS011;40471;44.534;18.644;2024-03-23T12:48:15;2.42;;;1.20;;
52768;SDS011;40471;44.534;18.644;2024-03-23T12:50:41;3.55;;;1.55;;
52768;SDS011;40471;44.534;18.644;2024-03-23T12:53:07;5.15;;;1.92;;
52768;SDS011;40471;44.534;18.644;2024-03-23T12:55:36;5.68;;;1.67;;
52768;SDS011;40471;44.534;18.644;2024-03-23T12:58:02;6.30;;;1.58;;
52768;SDS011;40471;44.534;18.644;2024-03-23T13:00:28;2.03;;;1.17;;
52768;SDS011;40471;44.534;18.644;2024-03-23T13:02:54;2.75;;;2.13;;
52768;SDS011;40471;44.534;18.644;2024-03-23T13:05:20;1.45;;;0.88;;
52768;SDS011;40471;44.534;18.644;2024-03-23T13:07:46;3.42;;;2.13;;
52768;SDS011;40471;44.534;18.644;2024-03-23T13:10:11;2.83;;;2.10;;
52768;SDS011;40471;44.534;18.644;2024-03-23T13:12:38;5.72;;;3.10;;
52768;SDS011;40471;44.534;18.644;2024-03-23T13:15:05;7.43;;;2.15;;
52768;SDS011;40471;44.534;18.644;2024-03-23T13:17:31;5.15;;;2.63;;
52768;SDS011;40471;44.534;18.644;2024-03-23T13:19:56;2.13;;;1.20;;
52768;SDS011;40471;44.534;18.644;2024-03-23T13:22:22;3.83;;;1.80;;
52768;SDS011;40471;44.534;18.644;2024-03-23T13:24:48;5.55;;;2.15;;
52768;SDS011;40471;44.534;18.644;2024-03-23T13:27:13;3.17;;;1.83;;
52768;SDS011;40471;44.534;18.644;2024-03-23T13:29:39;2.95;;;1.48;;
52768;SDS011;40471;44.534;18.644;2024-03-23T13:32:05;8.13;;;2.53;;
52768;SDS011;40471;44.534;18.644;2024-03-23T13:34:31;3.45;;;1.10;;
52768;SDS011;40471;44.534;18.644;2024-03-23T13:36:58;3.90;;;1.98;;
52768;SDS011;40471;44.534;18.644;2024-03-23T13:39:24;4.50;;;1.85;;
52768;SDS011;40471;44.534;18.644;2024-03-23T13:41:52;2.65;;;2.03;;
52768;SDS011;40471;44.534;18.644;2024-03-23T13:44:22;3.00;;;1.38;;
52768;SDS011;40471;44.534;18.644;2024-03-23T13:46:48;4.40;;;2.28;;
52768;SDS011;40471;44.534;18.644;2024-03-23T13:49:26;3.15;;;1.67;;
52768;SDS011;40471;44.534;18.644;2024-03-23T13:51:54;6.35;;;2.28;;
52768;SDS011;40471;44.534;18.644;2024-03-23T13:54:22;4.50;;;1.75;;
52768;SDS011;40471;44.534;18.644;2024-03-23T13:56:54;2.88;;;1.80;;
52768;SDS011;40471;44.534;18.644;2024-03-23T13:59:21;7.90;;;3.70;;
52768;SDS011;40471;44.534;18.644;2024-03-23T14:01:50;6.68;;;3.53;;
52768;SDS011;40471;44.534;18.644;2024-03-23T14:04:16;4.05;;;2.45;;
52768;SDS011;40471;44.534;18.644;2024-03-23T14:06:44;7.45;;;2.65;;
52768;SDS011;40471;44.534;18.644;2024-03-23T14:09:13;8.38;;;3.75;;
52768;SDS011;40471;44.534;18.644;2024-03-23T14:11:40;5.90;;;4.13;;
52768;SDS011;40471;44.534;18.644;2024-03-23T14:14:08;5.35;;;2.42;;
52768;SDS011;40471;44.534;18.644;2024-03-23T14:16:34;4.50;;;2.67;;
52768;SDS011;40471;44.534;18.644;2024-03-23T14:19:00;5.38;;;3.17;;
52768;SDS011;40471;44.534;18.644;2024-03-23T14:21:26;5.20;;;3.28;;
52768;SDS011;40471;44.534;18.644;2024-03-23T14:23:52;8.25;;;3.25;;
52768;SDS011;40471;44.534;18.644;2024-03-23T14:26:19;3.80;;;2.35;;
52768;SDS011;40471;44.534;18.644;2024-03-23T14:28:45;6.80;;;3.78;;
52768;SDS011;40471;44.534;18.644;2024-03-23T14:31:11;18.55;;;2.85;;
52768;SDS011;40471;44.534;18.644;2024-03-23T14:36:03;6.38;;;2.35;;
52768;SDS011;40471;44.534;18.644;2024-03-23T14:38:30;4.22;;;2.83;;
52768;SDS011;40471;44.534;18.644;2024-03-23T14:41:00;11.50;;;3.92;;
52768;SDS011;40471;44.534;18.644;2024-03-23T14:43:27;6.65;;;2.85;;
52768;SDS011;40471;44.534;18.644;2024-03-23T14:48:39;7.10;;;2.30;;
52768;SDS011;40471;44.534;18.644;2024-03-23T14:51:06;2.47;;;2.20;;
52768;SDS011;40471;44.534;18.644;2024-03-23T14:53:39;3.35;;;1.55;;
52768;SDS011;40471;44.534;18.644;2024-03-23T14:56:07;4.75;;;3.17;;
52768;SDS011;40471;44.534;18.644;2024-03-23T14:58:34;5.82;;;2.65;;
52768;SDS011;40471;44.534;18.644;2024-03-23T15:03:29;4.43;;;2.50;;
52768;SDS011;40471;44.534;18.644;2024-03-23T15:08:21;2.33;;;1.63;;
52768;SDS011;40471;44.534;18.644;2024-03-23T15:10:47;5.22;;;2.53;;
52768;SDS011;40471;44.534;18.644;2024-03-23T15:15:40;2.53;;;2.20;;
52768;SDS011;40471;44.534;18.644;2024-03-23T15:18:08;6.55;;;1.75;;
52768;SDS011;40471;44.534;18.644;2024-03-23T15:20:35;12.18;;;2.72;;
52768;SDS011;40471;44.534;18.644;2024-03-23T15:25:30;4.47;;;1.63;;
52768;SDS011;40471;44.534;18.644;2024-03-23T15:27:57;5.10;;;1.58;;
52768;SDS011;40471;44.534;18.644;2024-03-23T15:30:24;4.65;;;1.80;;
52768;SDS011;40471;44.534;18.644;2024-03-23T15:32:50;4.00;;;1.85;;
52768;SDS011;40471;44.534;18.644;2024-03-23T15:37:41;5.88;;;2.33;;
52768;SDS011;40471;44.534;18.644;2024-03-23T15:40:07;2.95;;;2.13;;
52768;SDS011;40471;44.534;18.644;2024-03-23T15:42:35;8.00;;;2.55;;
52768;SDS011;40471;44.534;18.644;2024-03-23T15:45:00;9.30;;;2.67;;
52768;SDS011;40471;44.534;18.644;2024-03-23T15:47:28;3.47;;;1.42;;
52768;SDS011;40471;44.534;18.644;2024-03-23T15:49:54;3.03;;;1.45;;
52768;SDS011;40471;44.534;18.644;2024-03-23T15:52:20;7.38;;;2.33;;
52768;SDS011;40471;44.534;18.644;2024-03-23T15:54:46;4.15;;;2.13;;
52768;SDS011;40471;44.534;18.644;2024-03-23T15:57:12;4.65;;;1.65;;
52768;SDS011;40471;44.534;18.644;2024-03-23T15:59:41;2.65;;;1.15;;
52768;SDS011;40471;44.534;18.644;2024-03-23T16:02:06;4.15;;;1.98;;
52768;SDS011;40471;44.534;18.644;2024-03-23T16:04:32;3.60;;;2.08;;
52768;SDS011;40471;44.534;18.644;2024-03-23T16:06:58;4.88;;;1.30;;
52768;SDS011;40471;44.534;18.644;2024-03-23T16:09:24;7.25;;;1.90;;